createdAt,value
2023-01-15T00:01:26.451Z,45.57
2023-01-15T00:03:55.997Z,45.37
2023-01-15T00:06:25.381Z,45.44
2023-01-15T00:08:55.626Z,45.48
2023-01-15T00:11:24.227Z,45.47
2023-01-15T00:13:52.981Z,45.42
2023-01-15T00:16:23.254Z,45.43
2023-01-15T00:18:52.493Z,45.40
2023-01-15T00:21:21.343Z,45.29
2023-01-15T00:24:07.255Z,45.31
2023-01-15T00:26:54.625Z,45.36
2023-01-15T00:29:23.706Z,45.42
2023-01-15T00:31:57.677Z,45.28
2023-01-15T00:34:26.364Z,45.32
2023-01-15T00:36:55.090Z,45.19
2023-01-15T00:39:24.341Z,45.19
2023-01-15T00:41:54.405Z,45.18
2023-01-15T00:44:23.253Z,45.14
2023-01-15T00:46:51.874Z,45.19
2023-01-15T00:49:20.682Z,45.26
2023-01-15T00:51:51.094Z,45.25
2023-01-15T00:54:19.616Z,45.19
2023-01-15T00:56:48.126Z,45.15
2023-01-15T00:59:21.124Z,45.00
2023-01-15T01:01:52.481Z,45.11
2023-01-15T01:04:21.407Z,45.12
2023-01-15T01:06:50.063Z,45.12
2023-01-15T01:09:18.774Z,44.95
2023-01-15T01:11:47.400Z,45.08
2023-01-15T01:14:17.377Z,45.09
2023-01-15T01:16:46.046Z,45.08
2023-01-15T01:19:17.593Z,45.11
2023-01-15T01:21:46.484Z,44.87
2023-01-15T01:24:16.627Z,45.03
2023-01-15T01:26:45.909Z,44.96
2023-01-15T01:29:15.133Z,45.11
2023-01-15T01:31:45.494Z,45.06
2023-01-15T01:34:14.480Z,45.05
2023-01-15T01:36:44.307Z,44.93
2023-01-15T01:39:16.355Z,44.83
2023-01-15T01:41:46.543Z,44.93
2023-01-15T01:45:10.616Z,44.77
2023-01-15T01:47:40.494Z,44.84
2023-01-15T01:50:12.387Z,44.94
2023-01-15T01:52:44.838Z,44.73
2023-01-15T01:55:15.097Z,44.97
2023-01-15T01:57:43.660Z,44.83
2023-01-15T02:00:15.281Z,44.74
2023-01-15T02:02:47.453Z,44.78
2023-01-15T02:05:21.811Z,44.73
2023-01-15T02:07:50.575Z,44.79
2023-01-15T02:10:19.932Z,44.83
2023-01-15T02:12:52.770Z,44.66
2023-01-15T02:15:27.850Z,44.70
2023-01-15T02:18:02.622Z,44.79
2023-01-15T02:20:33.826Z,44.76
2023-01-15T02:23:52.961Z,44.67
2023-01-15T02:26:52.027Z,44.67
2023-01-15T02:29:26.097Z,44.71
2023-01-15T02:31:55.062Z,44.67
2023-01-15T02:34:26.726Z,44.68
2023-01-15T02:37:00.790Z,44.77
2023-01-15T02:39:29.882Z,44.62
2023-01-15T02:42:02.026Z,44.44
2023-01-15T02:44:31.984Z,44.59
2023-01-15T02:47:00.567Z,44.64
2023-01-15T02:49:29.328Z,44.64
2023-01-15T02:52:00.906Z,44.68
2023-01-15T02:54:32.408Z,44.52
2023-01-15T02:57:02.394Z,44.49
2023-01-15T02:59:36.433Z,44.55
2023-01-15T03:02:07.964Z,44.58
2023-01-15T03:04:39.181Z,44.55
2023-01-15T03:07:11.167Z,44.52
2023-01-15T03:09:39.946Z,44.42
2023-01-15T03:12:14.559Z,44.46
2023-01-15T03:14:51.005Z,44.52
2023-01-15T03:17:21.411Z,44.51
2023-01-15T03:19:52.384Z,44.49
2023-01-15T03:22:24.745Z,44.47
2023-01-15T03:24:55.458Z,44.12
2023-01-15T03:27:25.458Z,44.31
2023-01-15T03:29:56.806Z,44.42
2023-01-15T03:32:25.499Z,44.29
2023-01-15T03:34:56.267Z,44.45
2023-01-15T03:37:27.495Z,44.38
2023-01-15T03:39:56.615Z,44.47
2023-01-15T03:42:34.947Z,44.28
2023-01-15T03:45:06.790Z,44.38
2023-01-15T03:47:43.890Z,44.30
2023-01-15T03:50:17.116Z,44.12
2023-01-15T03:52:47.624Z,44.32
2023-01-15T03:55:17.994Z,44.14
2023-01-15T03:57:51.043Z,44.15
2023-01-15T04:00:23.418Z,44.09
2023-01-15T04:02:52.039Z,44.37
2023-01-15T04:05:21.123Z,44.19
2023-01-15T04:07:49.918Z,44.28
2023-01-15T04:10:18.797Z,44.21
2023-01-15T04:12:49.492Z,44.31
2023-01-15T04:15:19.219Z,44.17
2023-01-15T04:17:48.047Z,44.26
2023-01-15T04:20:16.683Z,44.15
2023-01-15T04:22:45.299Z,44.06
2023-01-15T04:25:13.957Z,44.19
2023-01-15T04:27:42.601Z,44.21
2023-01-15T04:30:17.405Z,44.26
2023-01-15T04:32:46.179Z,44.07
2023-01-15T04:35:14.726Z,44.16
2023-01-15T04:37:43.377Z,44.13
2023-01-15T04:40:33.393Z,44.08
2023-01-15T04:43:19.624Z,44.13
2023-01-15T04:45:49.617Z,43.96
2023-01-15T04:48:18.279Z,43.96
2023-01-15T04:50:46.852Z,43.95
2023-01-15T04:53:15.535Z,44.01
2023-01-15T04:55:44.049Z,44.05
2023-01-15T04:58:12.594Z,43.96
2023-01-15T05:00:42.103Z,44.06
2023-01-15T05:03:13.150Z,44.06
2023-01-15T05:05:41.774Z,43.91
2023-01-15T05:08:10.702Z,44.04
2023-01-15T05:10:39.246Z,44.01
2023-01-15T05:13:07.984Z,44.05
2023-01-15T05:15:38.492Z,43.92
2023-01-15T05:18:07.410Z,43.93
2023-01-15T05:20:39.233Z,44.01
2023-01-15T05:23:07.826Z,43.85
2023-01-15T05:25:38.201Z,43.98
2023-01-15T05:28:07.072Z,43.85
2023-01-15T05:30:35.890Z,43.96
2023-01-15T05:33:04.559Z,43.99
2023-01-15T05:35:33.068Z,43.96
2023-01-15T05:38:04.233Z,43.91
2023-01-15T05:40:32.894Z,43.95
2023-01-15T05:43:01.572Z,43.81
2023-01-15T05:45:30.235Z,43.98
2023-01-15T05:47:58.929Z,43.85
2023-01-15T05:50:29.015Z,43.88
2023-01-15T05:52:57.856Z,43.77
2023-01-15T05:55:28.146Z,43.77
2023-01-15T05:57:57.763Z,43.68
2023-01-15T06:00:28.757Z,43.90
2023-01-15T06:02:58.404Z,43.90
2023-01-15T06:05:26.981Z,43.74
2023-01-15T06:07:55.480Z,43.84
2023-01-15T06:10:24.142Z,43.67
2023-01-15T06:12:54.106Z,43.68
2023-01-15T06:15:22.693Z,43.78
2023-01-15T06:17:51.895Z,43.80
2023-01-15T06:20:20.724Z,43.87
2023-01-15T06:22:50.941Z,43.78
2023-01-15T06:25:19.634Z,43.80
2023-01-15T06:27:49.376Z,43.71
2023-01-15T06:30:20.056Z,43.66
2023-01-15T06:32:48.718Z,43.80
2023-01-15T06:35:17.357Z,43.82
2023-01-15T06:37:45.961Z,43.75
2023-01-15T06:40:15.222Z,43.71
2023-01-15T06:43:01.059Z,43.66
2023-01-15T06:45:49.455Z,43.54
2023-01-15T06:48:19.187Z,43.71
2023-01-15T06:50:47.725Z,43.60
2023-01-15T06:53:16.383Z,43.80
2023-01-15T06:55:45.012Z,43.61
2023-01-15T06:58:13.847Z,43.68
2023-01-15T07:00:46.981Z,43.65
2023-01-15T07:03:15.570Z,43.69
2023-01-15T07:05:46.330Z,43.65
2023-01-15T07:08:14.877Z,43.63
2023-01-15T07:10:43.733Z,43.65
2023-01-15T07:13:12.394Z,43.73
2023-01-15T07:15:41.067Z,43.81
2023-01-15T07:18:11.039Z,43.93
2023-01-15T07:20:39.531Z,43.93
2023-01-15T07:23:08.117Z,43.83
2023-01-15T07:25:37.653Z,43.88
2023-01-15T07:28:06.810Z,43.81
2023-01-15T07:30:35.432Z,44.35
2023-01-15T07:33:04.107Z,44.24
2023-01-15T07:35:35.925Z,44.02
2023-01-15T07:38:04.612Z,43.97
2023-01-15T07:40:33.181Z,44.17
2023-01-15T07:43:19.169Z,44.19
2023-01-15T07:46:01.857Z,44.22
2023-01-15T07:48:48.058Z,44.29
2023-01-15T07:51:18.029Z,44.51
2023-01-15T07:53:46.503Z,44.65
2023-01-15T07:56:15.167Z,44.60
2023-01-15T07:58:49.296Z,44.57
2023-01-15T08:01:18.052Z,44.00
2023-01-15T08:03:46.696Z,44.08
2023-01-15T08:06:15.281Z,44.41
2023-01-15T08:08:45.186Z,44.43
2023-01-15T08:11:31.410Z,44.43
2023-01-15T08:14:17.512Z,44.26
2023-01-15T08:16:46.152Z,44.29
2023-01-15T08:19:14.741Z,44.62
2023-01-15T08:21:43.325Z,44.59
2023-01-15T08:24:13.575Z,44.38
2023-01-15T08:26:42.222Z,44.54
2023-01-15T08:29:10.720Z,44.62
2023-01-15T08:31:41.436Z,44.83
2023-01-15T08:34:10.143Z,44.68
2023-01-15T08:36:38.683Z,44.93
2023-01-15T08:39:07.327Z,44.98
2023-01-15T08:41:37.224Z,44.89
2023-01-15T08:44:06.126Z,45.01
2023-01-15T08:46:34.715Z,44.70
2023-01-15T08:49:03.965Z,44.83
2023-01-15T08:51:33.940Z,44.89
2023-01-15T08:54:02.462Z,44.81
2023-01-15T08:56:30.967Z,44.90
2023-01-15T08:59:01.377Z,44.63
2023-01-15T09:01:30.057Z,44.83
2023-01-15T09:03:59.325Z,44.88
2023-01-15T09:06:28.214Z,44.98
2023-01-15T09:08:56.933Z,44.88
2023-01-15T09:11:25.674Z,45.13
2023-01-15T09:13:54.532Z,45.30
2023-01-15T09:16:26.726Z,45.06
2023-01-15T09:18:55.752Z,44.89
2023-01-15T09:21:24.679Z,44.95
2023-01-15T09:23:53.426Z,44.69
2023-01-15T09:26:31.582Z,44.82
2023-01-15T09:29:00.365Z,44.71
2023-01-15T09:31:30.348Z,44.69
2023-01-15T09:33:58.986Z,44.53
2023-01-15T09:36:29.543Z,44.46
2023-01-15T09:38:58.285Z,44.58
2023-01-15T09:41:45.753Z,44.58
2023-01-15T09:44:33.173Z,44.67
2023-01-15T09:47:10.326Z,44.66
2023-01-15T09:49:52.601Z,44.74
2023-01-15T09:52:27.949Z,44.15
2023-01-15T09:55:03.105Z,44.11
2023-01-15T09:57:31.624Z,44.33
2023-01-15T10:00:02.690Z,44.57
2023-01-15T10:02:39.043Z,44.47
2023-01-15T10:05:12.718Z,44.71
2023-01-15T10:07:44.477Z,44.56
2023-01-15T10:10:18.196Z,44.44
2023-01-15T10:12:48.312Z,44.64
2023-01-15T10:15:26.149Z,44.64
2023-01-15T10:17:57.463Z,44.66
2023-01-15T10:20:53.595Z,44.45
2023-01-15T10:23:37.134Z,44.48
2023-01-15T10:26:18.928Z,44.49
2023-01-15T10:29:03.491Z,44.55
2023-01-15T10:31:50.982Z,44.24
2023-01-15T10:35:11.814Z,44.54
2023-01-15T10:37:44.805Z,44.40
2023-01-15T10:41:21.851Z,44.78
2023-01-15T10:43:54.022Z,44.53
2023-01-15T10:46:27.225Z,44.49
2023-01-15T10:48:57.554Z,44.33
2023-01-15T10:51:31.140Z,44.44
2023-01-15T10:54:04.131Z,44.30
2023-01-15T10:56:35.091Z,44.45
2023-01-15T10:59:12.356Z,44.81
2023-01-15T11:01:41.143Z,44.44
2023-01-15T11:04:12.557Z,44.50
2023-01-15T11:06:42.696Z,44.65
2023-01-15T11:09:20.440Z,44.51
2023-01-15T11:12:08.250Z,45.47
2023-01-15T11:14:55.640Z,45.61
2023-01-15T11:17:42.539Z,45.68
2023-01-15T11:20:33.123Z,46.45
2023-01-15T11:23:10.582Z,45.59
2023-01-15T11:25:44.482Z,46.43
2023-01-15T11:28:15.534Z,45.74
2023-01-15T11:30:45.409Z,47.05
2023-01-15T11:33:24.277Z,46.38
2023-01-15T11:35:57.364Z,46.36
2023-01-15T11:38:28.193Z,47.20
2023-01-15T11:40:59.827Z,46.60
2023-01-15T11:43:47.063Z,47.25
2023-01-15T11:46:51.353Z,49.04
2023-01-15T11:49:39.140Z,48.95
2023-01-15T11:52:10.407Z,49.41
2023-01-15T11:54:43.705Z,49.01
2023-01-15T11:57:12.570Z,48.44
2023-01-15T11:59:41.280Z,48.30
2023-01-15T12:02:17.869Z,48.39
2023-01-15T12:04:52.543Z,48.13
2023-01-15T12:07:24.410Z,47.97
2023-01-15T12:10:19.511Z,47.83
2023-01-15T12:13:02.730Z,47.65
2023-01-15T12:15:37.848Z,47.63
2023-01-15T12:18:22.082Z,47.48
2023-01-15T12:20:59.779Z,47.27
2023-01-15T12:24:15.422Z,47.15
2023-01-15T12:26:53.430Z,46.75
2023-01-15T12:29:24.435Z,45.91
2023-01-15T12:31:54.735Z,46.29
2023-01-15T12:34:24.848Z,45.98
2023-01-15T12:36:55.869Z,46.33
2023-01-15T12:39:27.509Z,45.91
2023-01-15T12:42:17.900Z,46.14
2023-01-15T12:45:05.158Z,46.46
2023-01-15T12:47:40.757Z,46.56
2023-01-15T12:50:28.885Z,46.03
2023-01-15T12:53:03.195Z,46.33
2023-01-15T12:55:33.122Z,45.86
2023-01-15T12:58:03.853Z,45.68
2023-01-15T13:00:36.292Z,45.49
2023-01-15T13:03:18.273Z,45.73
2023-01-15T13:05:48.935Z,46.03
2023-01-15T13:08:22.368Z,45.51
2023-01-15T13:10:51.324Z,45.75
2023-01-15T13:13:23.155Z,46.03
2023-01-15T13:16:06.164Z,45.70
2023-01-15T13:18:41.266Z,46.16
2023-01-15T13:21:13.561Z,46.22
2023-01-15T13:24:11.234Z,46.87
2023-01-15T13:27:16.493Z,46.13
2023-01-15T13:29:56.241Z,46.18
2023-01-15T13:32:26.110Z,46.44
2023-01-15T13:34:57.161Z,46.42
2023-01-15T13:37:29.837Z,46.77
2023-01-15T13:39:59.807Z,46.25
2023-01-15T13:42:34.678Z,46.73
2023-01-15T13:45:28.451Z,46.82
2023-01-15T13:47:58.925Z,46.69
2023-01-15T13:50:31.138Z,46.60
2023-01-15T13:53:17.801Z,47.27
2023-01-15T13:55:52.310Z,46.50
2023-01-15T13:58:24.917Z,46.82
2023-01-15T14:01:08.653Z,46.55
2023-01-15T14:03:38.649Z,46.73
2023-01-15T14:06:08.602Z,46.61
2023-01-15T14:08:42.783Z,46.70
2023-01-15T14:11:36.420Z,46.33
2023-01-15T14:14:52.038Z,46.58
2023-01-15T14:18:05.022Z,46.82
2023-01-15T14:20:42.023Z,46.26
2023-01-15T14:23:24.906Z,46.57
2023-01-15T14:26:02.235Z,46.61
2023-01-15T14:28:47.507Z,46.83
2023-01-15T14:31:47.346Z,46.35
2023-01-15T14:34:19.515Z,46.87
2023-01-15T14:36:54.103Z,46.43
2023-01-15T14:39:33.056Z,45.36
2023-01-15T14:42:26.805Z,45.56
2023-01-15T14:45:04.212Z,46.51
2023-01-15T14:47:36.921Z,46.61
2023-01-15T14:50:31.464Z,46.63
2023-01-15T14:53:05.486Z,46.46
2023-01-15T14:55:34.208Z,46.40
2023-01-15T14:58:04.385Z,46.46
2023-01-15T15:00:36.705Z,46.13
2023-01-15T15:03:06.492Z,46.21
2023-01-15T15:05:36.571Z,46.39
2023-01-15T15:08:05.586Z,46.45
2023-01-15T15:10:37.011Z,46.46
2023-01-15T15:13:13.407Z,46.28
2023-01-15T15:15:47.545Z,46.32
2023-01-15T15:18:25.544Z,46.23
2023-01-15T15:21:05.476Z,46.21
2023-01-15T15:23:40.688Z,100.00
2023-01-15T15:26:21.359Z,100.00
2023-01-15T15:29:00.586Z,100.00
2023-01-15T15:31:30.471Z,100.00
2023-01-15T15:33:59.347Z,100.00
2023-01-15T15:36:30.489Z,100.00
2023-01-15T15:39:01.002Z,46.21
2023-01-15T15:41:49.656Z,46.13
2023-01-15T15:44:38.412Z,46.06
2023-01-15T15:47:46.121Z,45.93
2023-01-15T15:50:21.960Z,46.03
2023-01-15T15:52:52.881Z,45.72
2023-01-15T15:55:22.067Z,45.83
2023-01-15T15:57:52.271Z,45.93
2023-01-15T16:00:26.504Z,45.73
2023-01-15T16:02:55.283Z,45.75
2023-01-15T16:05:26.004Z,45.73
2023-01-15T16:07:56.319Z,45.76
2023-01-15T16:10:27.518Z,45.63
2023-01-15T16:12:58.180Z,45.76
2023-01-15T16:15:29.727Z,45.48
2023-01-15T16:17:58.861Z,45.60
2023-01-15T16:20:27.442Z,45.54
2023-01-15T16:22:58.785Z,45.36
2023-01-15T16:25:28.759Z,45.48
2023-01-15T16:27:57.391Z,45.53
2023-01-15T16:30:25.963Z,45.33
2023-01-15T16:32:55.942Z,45.39
2023-01-15T16:35:26.482Z,45.43
2023-01-15T16:37:57.825Z,45.28
2023-01-15T16:40:28.918Z,45.35
2023-01-15T16:43:05.259Z,45.28
2023-01-15T16:45:33.866Z,45.25
2023-01-15T16:48:11.781Z,45.30
2023-01-15T16:50:42.543Z,45.31
2023-01-15T16:53:32.679Z,45.25
2023-01-15T16:56:01.630Z,45.11
2023-01-15T16:58:38.332Z,45.12
2023-01-15T17:01:36.668Z,45.03
2023-01-15T17:04:06.044Z,44.98
2023-01-15T17:06:34.787Z,45.07
2023-01-15T17:09:05.516Z,44.97
2023-01-15T17:11:34.290Z,45.15
2023-01-15T17:14:11.147Z,45.19
2023-01-15T17:16:40.075Z,45.10
2023-01-15T17:19:09.011Z,45.28
2023-01-15T17:21:38.145Z,45.26
2023-01-15T17:24:09.207Z,45.31
2023-01-15T17:26:37.773Z,45.23
2023-01-15T17:29:06.306Z,45.33
2023-01-15T17:31:36.431Z,45.43
2023-01-15T17:34:05.176Z,45.37
2023-01-15T17:36:34.719Z,45.40
2023-01-15T17:39:03.429Z,45.10
2023-01-15T17:41:33.428Z,45.27
2023-01-15T17:44:02.102Z,45.13
2023-01-15T17:46:31.278Z,45.36
2023-01-15T17:49:00.030Z,45.26
2023-01-15T17:51:30.469Z,45.34
2023-01-15T17:53:59.117Z,45.33
2023-01-15T17:56:44.908Z,45.30
2023-01-15T17:59:32.572Z,45.34
2023-01-15T18:02:18.629Z,45.06
2023-01-15T18:05:06.008Z,45.36
2023-01-15T18:07:39.359Z,45.60
2023-01-15T18:10:08.823Z,45.86
2023-01-15T18:12:37.406Z,46.10
2023-01-15T18:15:09.313Z,46.45
2023-01-15T18:17:38.160Z,46.50
2023-01-15T18:20:08.215Z,46.50
2023-01-15T18:22:37.983Z,46.28
2023-01-15T18:25:09.787Z,46.37
2023-01-15T18:27:43.196Z,46.36
2023-01-15T18:30:15.126Z,46.44
2023-01-15T18:32:44.446Z,46.24
2023-01-15T18:35:14.895Z,46.32
2023-01-15T18:37:43.825Z,46.23
2023-01-15T18:40:13.616Z,46.40
2023-01-15T18:42:59.688Z,46.09
2023-01-15T18:45:47.150Z,46.19
2023-01-15T18:48:15.911Z,46.28
2023-01-15T18:50:44.516Z,46.06
2023-01-15T18:53:13.826Z,45.93
2023-01-15T18:55:43.864Z,45.93
2023-01-15T18:58:12.382Z,45.91
2023-01-15T19:00:42.401Z,45.84
2023-01-15T19:03:11.226Z,45.79
2023-01-15T19:05:39.977Z,45.87
2023-01-15T19:08:08.659Z,46.09
2023-01-15T19:10:37.490Z,46.06
2023-01-15T19:13:06.201Z,46.08
2023-01-15T19:15:52.484Z,45.98
2023-01-15T19:18:40.358Z,46.06
2023-01-15T19:21:10.454Z,45.81
2023-01-15T19:23:39.046Z,45.83
2023-01-15T19:26:07.815Z,45.68
2023-01-15T19:28:36.431Z,45.76
2023-01-15T19:31:26.043Z,45.85
2023-01-15T19:34:13.249Z,45.75
2023-01-15T19:36:46.696Z,45.82
2023-01-15T19:39:17.592Z,45.90
2023-01-15T19:42:03.701Z,45.95
2023-01-15T19:44:50.291Z,45.91
2023-01-15T19:47:40.815Z,45.82
2023-01-15T19:50:20.337Z,46.07
2023-01-15T19:52:49.258Z,45.98
2023-01-15T19:55:18.233Z,45.82
2023-01-15T19:57:48.043Z,45.87
2023-01-15T20:00:19.204Z,45.75
2023-01-15T20:02:48.170Z,45.76
2023-01-15T20:05:18.482Z,45.73
2023-01-15T20:07:47.389Z,45.68
2023-01-15T20:10:18.622Z,45.12
2023-01-15T20:13:04.494Z,45.53
2023-01-15T20:15:33.214Z,45.75
2023-01-15T20:18:01.835Z,45.70
2023-01-15T20:20:32.016Z,45.79
2023-01-15T20:23:00.733Z,45.56
2023-01-15T20:25:29.720Z,45.47
2023-01-15T20:27:59.919Z,45.60
2023-01-15T20:30:28.825Z,45.77
2023-01-15T20:32:58.385Z,45.60
2023-01-15T20:35:29.383Z,45.58
2023-01-15T20:37:59.438Z,45.58
2023-01-15T20:40:28.221Z,45.63
2023-01-15T20:43:14.232Z,45.72
2023-01-15T20:45:43.004Z,45.58
2023-01-15T20:48:29.106Z,45.46
2023-01-15T20:51:03.660Z,45.43
2023-01-15T20:53:34.891Z,45.28
2023-01-15T20:56:03.842Z,45.29
2023-01-15T20:58:32.701Z,45.31
2023-01-15T21:01:04.351Z,45.46
2023-01-15T21:03:33.342Z,45.35
2023-01-15T21:06:04.646Z,45.30
2023-01-15T21:08:35.635Z,45.28
2023-01-15T21:11:04.238Z,45.16
2023-01-15T21:13:32.948Z,45.24
2023-01-15T21:16:02.791Z,45.15
2023-01-15T21:18:32.519Z,45.20
2023-01-15T21:21:01.118Z,45.24
2023-01-15T21:23:29.763Z,45.15
2023-01-15T21:26:02.384Z,45.23
2023-01-15T21:28:31.359Z,45.17
2023-01-15T21:31:04.049Z,45.14
2023-01-15T21:33:32.679Z,45.02
2023-01-15T21:36:01.998Z,44.99
2023-01-15T21:38:30.555Z,45.10
2023-01-15T21:40:59.381Z,45.04
2023-01-15T21:43:46.599Z,44.93
2023-01-15T21:46:15.344Z,44.94
2023-01-15T21:48:43.963Z,45.11
2023-01-15T21:51:12.755Z,45.11
2023-01-15T21:53:41.413Z,44.95
2023-01-15T21:56:10.013Z,44.97
2023-01-15T21:58:40.215Z,44.84
2023-01-15T22:01:12.134Z,44.91
2023-01-15T22:03:40.773Z,44.78
2023-01-15T22:06:10.991Z,44.68
2023-01-15T22:08:39.614Z,44.77
2023-01-15T22:11:10.854Z,44.60
2023-01-15T22:13:41.468Z,44.81
2023-01-15T22:16:10.133Z,44.81
2023-01-15T22:18:38.736Z,44.75
2023-01-15T22:21:08.643Z,44.75
2023-01-15T22:23:37.341Z,44.68
2023-01-15T22:26:06.331Z,44.66
2023-01-15T22:28:35.034Z,44.72
2023-01-15T22:31:08.331Z,44.72
2023-01-15T22:33:37.025Z,44.59
2023-01-15T22:36:07.041Z,44.80
2023-01-15T22:38:36.063Z,44.65
2023-01-15T22:41:04.829Z,44.55
2023-01-15T22:43:33.600Z,44.43
2023-01-15T22:46:11.704Z,44.63
2023-01-15T22:48:40.601Z,44.19
2023-01-15T22:51:09.203Z,44.47
2023-01-15T22:53:37.854Z,44.40
2023-01-15T22:56:08.143Z,44.44
2023-01-15T22:58:40.084Z,44.44
2023-01-15T23:01:10.872Z,44.51
2023-01-15T23:03:39.505Z,44.48
2023-01-15T23:06:09.499Z,44.32
2023-01-15T23:08:38.729Z,44.30
2023-01-15T23:11:10.076Z,44.37
2023-01-15T23:13:38.731Z,44.30
2023-01-15T23:16:07.736Z,44.33
2023-01-15T23:18:37.797Z,44.45
2023-01-15T23:21:09.085Z,44.46
2023-01-15T23:23:38.039Z,44.30
2023-01-15T23:26:07.396Z,44.34
2023-01-15T23:28:36.139Z,44.27
2023-01-15T23:31:04.678Z,44.27
2023-01-15T23:33:33.306Z,44.24
2023-01-15T23:36:03.275Z,44.25
2023-01-15T23:38:31.949Z,44.23
2023-01-15T23:41:00.657Z,44.29
2023-01-15T23:43:46.869Z,44.20
2023-01-15T23:46:35.796Z,44.16
2023-01-15T23:49:06.626Z,44.29
2023-01-15T23:51:36.798Z,44.31
2023-01-15T23:54:05.876Z,44.28
2023-01-15T23:56:34.525Z,44.26
2023-01-15T23:59:03.077Z,44.05
